sensor_id;sensor_type;location;lat;lon;timestamp;temperature;humidity
37938;DHT22;23763;48.130;11.602;2024-03-23T00:53:43;12.00;99.90
37938;DHT22;23763;48.130;11.602;2024-03-23T00:56:08;12.00;99.90
37938;DHT22;23763;48.130;11.602;2024-03-23T00:58:34;12.10;99.90
37938;DHT22;23763;48.130;11.602;2024-03-23T01:01:00;12.10;99.90
37938;DHT22;23763;48.130;11.602;2024-03-23T01:03:26;12.20;99.90
37938;DHT22;23763;48.130;11.602;2024-03-23T01:05:52;12.20;99.90
37938;DHT22;23763;48.130;11.602;2024-03-23T01:08:19;12.20;99.90
37938;DHT22;23763;48.130;11.602;2024-03-23T01:11:00;12.20;99.90
37938;DHT22;23763;48.130;11.602;2024-03-23T01:13:27;12.20;99.90
37938;DHT22;23763;48.130;11.602;2024-03-23T01:15:55;12.30;99.90
37938;DHT22;23763;48.130;11.602;2024-03-23T01:18:21;12.30;99.90
37938;DHT22;23763;48.130;11.602;2024-03-23T01:20:48;12.30;99.90
37938;DHT22;23763;48.130;11.602;2024-03-23T01:23:14;12.30;99.90
37938;DHT22;23763;48.130;11.602;2024-03-23T01:25:40;12.40;99.90
37938;DHT22;23763;48.130;11.602;2024-03-23T01:28:06;12.50;99.90
37938;DHT22;23763;48.130;11.602;2024-03-23T01:30:32;12.50;99.90
37938;DHT22;23763;48.130;11.602;2024-03-23T01:32:58;12.50;99.90
37938;DHT22;23763;48.130;11.602;2024-03-23T01:35:23;12.50;99.90
37938;DHT22;23763;48.130;11.602;2024-03-23T01:37:49;12.50;99.90
37938;DHT22;23763;48.130;11.602;2024-03-23T01:40:16;12.50;99.90
37938;DHT22;23763;48.130;11.602;2024-03-23T01:42:42;12.50;99.90
37938;DHT22;23763;48.130;11.602;2024-03-23T01:45:08;12.50;99.90
37938;DHT22;23763;48.130;11.602;2024-03-23T01:47:35;12.40;99.90
37938;DHT22;23763;48.130;11.602;2024-03-23T01:50:01;12.40;99.90
37938;DHT22;23763;48.130;11.602;2024-03-23T01:52:27;12.40;99.90
37938;DHT22;23763;48.130;11.602;2024-03-23T01:54:53;12.40;99.90
37938;DHT22;23763;48.130;11.602;2024-03-23T01:57:19;12.40;99.90
37938;DHT22;23763;48.130;11.602;2024-03-23T01:59:48;12.50;99.90
37938;DHT22;23763;48.130;11.602;2024-03-23T02:02:15;12.40;99.90
37938;DHT22;23763;48.130;11.602;2024-03-23T02:04:43;12.40;99.90
37938;DHT22;23763;48.130;11.602;2024-03-23T02:07:08;12.40;99.90
37938;DHT22;23763;48.130;11.602;2024-03-23T02:09:35;12.30;99.90
37938;DHT22;23763;48.130;11.602;2024-03-23T02:12:02;12.40;99.90
37938;DHT22;23763;48.130;11.602;2024-03-23T02:14:28;12.40;99.90
37938;DHT22;23763;48.130;11.602;2024-03-23T02:16:54;12.40;99.90
37938;DHT22;23763;48.130;11.602;2024-03-23T02:19:20;12.40;99.90
37938;DHT22;23763;48.130;11.602;2024-03-23T02:21:45;12.40;99.90
37938;DHT22;23763;48.130;11.602;2024-03-23T02:24:12;12.30;99.90
37938;DHT22;23763;48.130;11.602;2024-03-23T02:26:38;12.30;99.90
37938;DHT22;23763;48.130;11.602;2024-03-23T02:29:04;12.30;99.90
37938;DHT22;23763;48.130;11.602;2024-03-23T02:31:29;12.30;99.90
37938;DHT22;23763;48.130;11.602;2024-03-23T02:33:55;12.20;99.90
37938;DHT22;23763;48.130;11.602;2024-03-23T02:36:21;12.20;99.90
37938;DHT22;23763;48.130;11.602;2024-03-23T02:38:47;12.20;99.90
37938;DHT22;23763;48.130;11.602;2024-03-23T02:41:12;12.10;99.90
37938;DHT22;23763;48.130;11.602;2024-03-23T02:43:39;12.10;99.90
37938;DHT22;23763;48.130;11.602;2024-03-23T02:46:05;12.10;99.90
37938;DHT22;23763;48.130;11.602;2024-03-23T02:48:30;12.10;99.90
37938;DHT22;23763;48.130;11.602;2024-03-23T02:50:56;12.10;99.90
37938;DHT22;23763;48.130;11.602;2024-03-23T02:53:22;12.00;99.90
37938;DHT22;23763;48.130;11.602;2024-03-23T02:55:48;11.90;99.90
37938;DHT22;23763;48.130;11.602;2024-03-23T02:58:13;11.90;99.90
37938;DHT22;23763;48.130;11.602;2024-03-23T03:00:39;11.90;99.90
37938;DHT22;23763;48.130;11.602;2024-03-23T03:03:06;11.80;99.90
37938;DHT22;23763;48.130;11.602;2024-03-23T03:05:32;11.90;99.90
37938;DHT22;23763;48.130;11.602;2024-03-23T03:07:58;11.90;99.90
37938;DHT22;23763;48.130;11.602;2024-03-23T03:10:24;11.80;99.90
37938;DHT22;23763;48.130;11.602;2024-03-23T03:12:49;11.80;99.90
37938;DHT22;23763;48.130;11.602;2024-03-23T03:15:15;11.80;99.90
37938;DHT22;23763;48.130;11.602;2024-03-23T03:17:41;11.80;99.90
37938;DHT22;23763;48.130;11.602;2024-03-23T03:20:07;11.80;99.90
37938;DHT22;23763;48.130;11.602;2024-03-23T03:22:33;11.70;99.90
37938;DHT22;23763;48.130;11.602;2024-03-23T03:24:59;11.60;99.90
37938;DHT22;23763;48.130;11.602;2024-03-23T03:27:25;11.60;99.90
37938;DHT22;23763;48.130;11.602;2024-03-23T03:29:51;11.50;99.90
37938;DHT22;23763;48.130;11.602;2024-03-23T03:32:17;11.50;99.90
37938;DHT22;23763;48.130;11.602;2024-03-23T03:34:42;11.40;99.90
37938;DHT22;23763;48.130;11.602;2024-03-23T03:37:08;11.40;99.90
37938;DHT22;23763;48.130;11.602;2024-03-23T03:39:34;11.30;99.90
37938;DHT22;23763;48.130;11.602;2024-03-23T03:41:59;11.30;99.90
37938;DHT22;23763;48.130;11.602;2024-03-23T03:44:27;11.20;99.90
37938;DHT22;23763;48.130;11.602;2024-03-23T03:46:52;11.10;99.90
37938;DHT22;23763;48.130;11.602;2024-03-23T03:49:18;11.10;99.90
37938;DHT22;23763;48.130;11.602;2024-03-23T03:51:44;11.10;99.90
37938;DHT22;23763;48.130;11.602;2024-03-23T03:54:10;11.00;99.90
37938;DHT22;23763;48.130;11.602;2024-03-23T03:56:35;11.00;99.90
37938;DHT22;23763;48.130;11.602;2024-03-23T03:59:01;11.00;99.90
37938;DHT22;23763;48.130;11.602;2024-03-23T04:01:27;11.00;99.90
37938;DHT22;23763;48.130;11.602;2024-03-23T04:03:52;11.00;99.90
37938;DHT22;23763;48.130;11.602;2024-03-23T04:06:21;11.00;99.90
37938;DHT22;23763;48.130;11.602;2024-03-23T04:08:47;11.10;99.90
37938;DHT22;23763;48.130;11.602;2024-03-23T04:11:13;11.10;99.90
37938;DHT22;23763;48.130;11.602;2024-03-23T04:13:38;11.20;99.90
37938;DHT22;23763;48.130;11.602;2024-03-23T04:16:07;11.20;99.90
37938;DHT22;23763;48.130;11.602;2024-03-23T04:18:32;11.30;99.90
37938;DHT22;23763;48.130;11.602;2024-03-23T04:20:58;11.30;99.90
37938;DHT22;23763;48.130;11.602;2024-03-23T04:23:24;11.40;99.90
37938;DHT22;23763;48.130;11.602;2024-03-23T04:25:49;11.50;99.90
37938;DHT22;23763;48.130;11.602;2024-03-23T04:28:15;11.60;99.90
37938;DHT22;23763;48.130;11.602;2024-03-23T04:30:41;11.70;99.90
37938;DHT22;23763;48.130;11.602;2024-03-23T04:33:07;11.70;99.90
37938;DHT22;23763;48.130;11.602;2024-03-23T04:35:33;11.70;99.90
37938;DHT22;23763;48.130;11.602;2024-03-23T04:37:59;11.80;99.90
37938;DHT22;23763;48.130;11.602;2024-03-23T04:40:26;11.90;99.90
37938;DHT22;23763;48.130;11.602;2024-03-23T04:42:51;11.90;99.90
37938;DHT22;23763;48.130;11.602;2024-03-23T04:45:17;11.90;99.90
37938;DHT22;23763;48.130;11.602;2024-03-23T04:47:43;11.90;99.90
37938;DHT22;23763;48.130;11.602;2024-03-23T04:50:09;11.90;99.90
37938;DHT22;23763;48.130;11.602;2024-03-23T04:52:36;11.80;99.90
37938;DHT22;23763;48.130;11.602;2024-03-23T04:55:02;11.70;99.90
37938;DHT22;23763;48.130;11.602;2024-03-23T04:57:28;11.60;99.90
37938;DHT22;23763;48.130;11.602;2024-03-23T04:59:53;11.60;99.90
37938;DHT22;23763;48.130;11.602;2024-03-23T05:02:19;11.50;99.90
37938;DHT22;23763;48.130;11.602;2024-03-23T05:04:45;11.50;99.90
37938;DHT22;23763;48.130;11.602;2024-03-23T05:07:11;11.40;99.90
37938;DHT22;23763;48.130;11.602;2024-03-23T05:09:37;11.40;99.90
37938;DHT22;23763;48.130;11.602;2024-03-23T05:12:02;11.30;99.90
37938;DHT22;23763;48.130;11.602;2024-03-23T05:14:28;11.20;99.90
37938;DHT22;23763;48.130;11.602;2024-03-23T05:16:54;11.20;99.90
37938;DHT22;23763;48.130;11.602;2024-03-23T05:19:21;11.20;99.90
37938;DHT22;23763;48.130;11.602;2024-03-23T05:21:46;11.10;99.90
37938;DHT22;23763;48.130;11.602;2024-03-23T05:24:12;11.10;99.90
37938;DHT22;23763;48.130;11.602;2024-03-23T05:26:38;11.10;99.90
37938;DHT22;23763;48.130;11.602;2024-03-23T05:29:04;11.00;99.90
37938;DHT22;23763;48.130;11.602;2024-03-23T05:31:32;11.00;99.90
37938;DHT22;23763;48.130;11.602;2024-03-23T05:33:58;11.00;99.90
37938;DHT22;23763;48.130;11.602;2024-03-23T05:36:23;11.00;99.90
37938;DHT22;23763;48.130;11.602;2024-03-23T05:38:50;11.10;99.90
37938;DHT22;23763;48.130;11.602;2024-03-23T05:41:16;11.00;99.90
37938;DHT22;23763;48.130;11.602;2024-03-23T05:43:41;11.00;99.90
37938;DHT22;23763;48.130;11.602;2024-03-23T05:46:07;11.00;99.90
37938;DHT22;23763;48.130;11.602;2024-03-23T05:48:34;11.10;99.90
37938;DHT22;23763;48.130;11.602;2024-03-23T05:51:00;11.20;99.90
37938;DHT22;23763;48.130;11.602;2024-03-23T05:53:25;11.20;99.90
37938;DHT22;23763;48.130;11.602;2024-03-23T05:55:59;11.30;99.90
37938;DHT22;23763;48.130;11.602;2024-03-23T05:58:25;11.30;99.90
37938;DHT22;23763;48.130;11.602;2024-03-23T06:01:00;11.30;99.90
37938;DHT22;23763;48.130;11.602;2024-03-23T06:03:27;11.20;99.90
37938;DHT22;23763;48.130;11.602;2024-03-23T06:05:53;11.30;99.90
37938;DHT22;23763;48.130;11.602;2024-03-23T06:08:19;11.30;99.90
37938;DHT22;23763;48.130;11.602;2024-03-23T06:10:48;11.40;99.90
37938;DHT22;23763;48.130;11.602;2024-03-23T06:13:15;11.50;99.90
37938;DHT22;23763;48.130;11.602;2024-03-23T06:15:42;11.60;99.90
37938;DHT22;23763;48.130;11.602;2024-03-23T06:18:08;11.70;99.90
37938;DHT22;23763;48.130;11.602;2024-03-23T06:20:34;11.80;99.90
37938;DHT22;23763;48.130;11.602;2024-03-23T06:23:01;11.80;99.90
37938;DHT22;23763;48.130;11.602;2024-03-23T06:25:27;11.90;99.90
37938;DHT22;23763;48.130;11.602;2024-03-23T06:27:53;11.90;99.90
37938;DHT22;23763;48.130;11.602;2024-03-23T06:30:18;11.90;99.90
37938;DHT22;23763;48.130;11.602;2024-03-23T06:32:44;12.00;99.90
37938;DHT22;23763;48.130;11.602;2024-03-23T06:35:10;12.10;99.90
37938;DHT22;23763;48.130;11.602;2024-03-23T06:37:36;12.10;99.90
37938;DHT22;23763;48.130;11.602;2024-03-23T06:40:02;12.10;99.90
37938;DHT22;23763;48.130;11.602;2024-03-23T06:42:30;12.20;99.90
37938;DHT22;23763;48.130;11.602;2024-03-23T06:44:56;12.30;99.90
37938;DHT22;23763;48.130;11.602;2024-03-23T06:47:21;12.40;99.90
37938;DHT22;23763;48.130;11.602;2024-03-23T06:49:47;12.40;99.90
37938;DHT22;23763;48.130;11.602;2024-03-23T06:52:13;12.50;99.90
37938;DHT22;23763;48.130;11.602;2024-03-23T06:54:39;12.50;99.90
37938;DHT22;23763;48.130;11.602;2024-03-23T06:57:05;12.60;99.90
37938;DHT22;23763;48.130;11.602;2024-03-23T06:59:30;12.70;99.90
37938;DHT22;23763;48.130;11.602;2024-03-23T07:01:56;12.80;99.90
37938;DHT22;23763;48.130;11.602;2024-03-23T07:04:22;12.90;99.90
37938;DHT22;23763;48.130;11.602;2024-03-23T07:06:48;13.10;99.90
37938;DHT22;23763;48.130;11.602;2024-03-23T07:09:13;13.60;99.90
37938;DHT22;23763;48.130;11.602;2024-03-23T07:11:39;13.80;99.90
37938;DHT22;23763;48.130;11.602;2024-03-23T07:14:05;13.80;99.90
37938;DHT22;23763;48.130;11.602;2024-03-23T07:16:31;14.00;99.90
37938;DHT22;23763;48.130;11.602;2024-03-23T07:18:57;14.20;99.80
37938;DHT22;23763;48.130;11.602;2024-03-23T07:21:22;14.40;99.70
37938;DHT22;23763;48.130;11.602;2024-03-23T07:24:00;14.50;99.70
37938;DHT22;23763;48.130;11.602;2024-03-23T07:26:26;14.60;99.70
37938;DHT22;23763;48.130;11.602;2024-03-23T07:28:52;14.70;99.90
37938;DHT22;23763;48.130;11.602;2024-03-23T07:31:18;14.80;99.70
37938;DHT22;23763;48.130;11.602;2024-03-23T07:33:49;14.90;99.80
37938;DHT22;23763;48.130;11.602;2024-03-23T07:36:15;15.00;99.70
37938;DHT22;23763;48.130;11.602;2024-03-23T07:38:41;15.00;99.90
37938;DHT22;23763;48.130;11.602;2024-03-23T07:41:18;15.00;99.50
37938;DHT22;23763;48.130;11.602;2024-03-23T07:43:44;15.00;99.60
37938;DHT22;23763;48.130;11.602;2024-03-23T07:46:10;14.90;99.80
37938;DHT22;23763;48.130;11.602;2024-03-23T07:48:37;14.70;99.90
37938;DHT22;23763;48.130;11.602;2024-03-23T07:51:08;14.60;99.90
37938;DHT22;23763;48.130;11.602;2024-03-23T07:53:35;14.20;99.90
37938;DHT22;23763;48.130;11.602;2024-03-23T07:56:07;13.70;99.90
37938;DHT22;23763;48.130;11.602;2024-03-23T07:58:34;13.40;99.90
37938;DHT22;23763;48.130;11.602;2024-03-23T08:01:08;13.10;99.90
37938;DHT22;23763;48.130;11.602;2024-03-23T08:03:35;13.00;99.90
37938;DHT22;23763;48.130;11.602;2024-03-23T08:06:19;12.80;99.90
37938;DHT22;23763;48.130;11.602;2024-03-23T08:08:47;12.60;99.90
37938;DHT22;23763;48.130;11.602;2024-03-23T08:11:13;12.40;99.90
37938;DHT22;23763;48.130;11.602;2024-03-23T08:13:40;12.20;99.90
37938;DHT22;23763;48.130;11.602;2024-03-23T08:16:06;12.10;99.90
37938;DHT22;23763;48.130;11.602;2024-03-23T08:18:32;12.00;99.90
37938;DHT22;23763;48.130;11.602;2024-03-23T08:21:03;12.00;99.90
37938;DHT22;23763;48.130;11.602;2024-03-23T08:23:31;11.90;99.90
37938;DHT22;23763;48.130;11.602;2024-03-23T08:26:00;11.70;99.90
37938;DHT22;23763;48.130;11.602;2024-03-23T08:28:27;11.60;99.90
37938;DHT22;23763;48.130;11.602;2024-03-23T08:30:53;11.50;99.90
37938;DHT22;23763;48.130;11.602;2024-03-23T08:33:20;11.50;99.90
37938;DHT22;23763;48.130;11.602;2024-03-23T08:36:06;11.40;99.90
37938;DHT22;23763;48.130;11.602;2024-03-23T08:38:33;11.30;99.90
37938;DHT22;23763;48.130;11.602;2024-03-23T08:41:02;11.20;99.90
37938;DHT22;23763;48.130;11.602;2024-03-23T08:43:29;11.10;99.90
37938;DHT22;23763;48.130;11.602;2024-03-23T08:46:11;10.80;99.90
37938;DHT22;23763;48.130;11.602;2024-03-23T08:51:05;10.30;99.90
37938;DHT22;23763;48.130;11.602;2024-03-23T08:53:32;10.20;99.90
37938;DHT22;23763;48.130;11.602;2024-03-23T08:55:59;10.20;99.90
37938;DHT22;23763;48.130;11.602;2024-03-23T08:58:27;10.20;99.90
37938;DHT22;23763;48.130;11.602;2024-03-23T09:00:55;10.20;99.90
37938;DHT22;23763;48.130;11.602;2024-03-23T09:03:25;10.10;99.90
37938;DHT22;23763;48.130;11.602;2024-03-23T09:05:51;10.00;99.90
37938;DHT22;23763;48.130;11.602;2024-03-23T09:08:18;10.00;99.90
37938;DHT22;23763;48.130;11.602;2024-03-23T09:10:44;9.90;99.90
37938;DHT22;23763;48.130;11.602;2024-03-23T09:13:09;9.90;99.90
37938;DHT22;23763;48.130;11.602;2024-03-23T09:15:36;9.90;99.90
37938;DHT22;23763;48.130;11.602;2024-03-23T09:18:03;9.80;99.90
37938;DHT22;23763;48.130;11.602;2024-03-23T09:20:32;9.90;99.90
37938;DHT22;23763;48.130;11.602;2024-03-23T09:22:58;9.70;99.90
37938;DHT22;23763;48.130;11.602;2024-03-23T09:25:23;9.80;99.90
37938;DHT22;23763;48.130;11.602;2024-03-23T09:27:50;9.80;99.90
37938;DHT22;23763;48.130;11.602;2024-03-23T09:30:16;9.90;99.90
37938;DHT22;23763;48.130;11.602;2024-03-23T09:32:43;9.80;99.90
37938;DHT22;23763;48.130;11.602;2024-03-23T09:35:10;9.90;99.90
37938;DHT22;23763;48.130;11.602;2024-03-23T09:37:36;9.90;99.90
37938;DHT22;23763;48.130;11.602;2024-03-23T09:40:02;9.80;99.90
37938;DHT22;23763;48.130;11.602;2024-03-23T09:42:28;9.80;99.90
37938;DHT22;23763;48.130;11.602;2024-03-23T09:44:57;9.70;99.90
37938;DHT22;23763;48.130;11.602;2024-03-23T09:47:24;9.70;99.90
37938;DHT22;23763;48.130;11.602;2024-03-23T09:49:50;9.70;99.90
37938;DHT22;23763;48.130;11.602;2024-03-23T09:52:16;9.60;99.90
37938;DHT22;23763;48.130;11.602;2024-03-23T09:54:42;9.60;99.90
37938;DHT22;23763;48.130;11.602;2024-03-23T09:57:08;9.50;99.90
37938;DHT22;23763;48.130;11.602;2024-03-23T09:59:34;9.40;99.90
37938;DHT22;23763;48.130;11.602;2024-03-23T10:02:01;9.40;99.90
37938;DHT22;23763;48.130;11.602;2024-03-23T10:04:37;9.40;99.90
37938;DHT22;23763;48.130;11.602;2024-03-23T10:07:14;9.40;99.90
37938;DHT22;23763;48.130;11.602;2024-03-23T10:09:40;9.30;99.90
37938;DHT22;23763;48.130;11.602;2024-03-23T10:12:10;9.20;99.90
37938;DHT22;23763;48.130;11.602;2024-03-23T10:14:36;9.10;99.90
37938;DHT22;23763;48.130;11.602;2024-03-23T10:17:22;9.00;99.90
37938;DHT22;23763;48.130;11.602;2024-03-23T10:19:52;9.10;99.90
37938;DHT22;23763;48.130;11.602;2024-03-23T10:22:23;9.10;99.90
37938;DHT22;23763;48.130;11.602;2024-03-23T10:24:52;9.20;99.90
37938;DHT22;23763;48.130;11.602;2024-03-23T10:27:21;9.20;99.90
37938;DHT22;23763;48.130;11.602;2024-03-23T10:29:47;9.20;99.90
37938;DHT22;23763;48.130;11.602;2024-03-23T10:32:14;9.30;99.90
37938;DHT22;23763;48.130;11.602;2024-03-23T10:34:41;9.30;99.90
37938;DHT22;23763;48.130;11.602;2024-03-23T10:37:08;9.30;99.90
37938;DHT22;23763;48.130;11.602;2024-03-23T10:39:38;9.40;99.90
37938;DHT22;23763;48.130;11.602;2024-03-23T10:42:08;9.20;99.90
37938;DHT22;23763;48.130;11.602;2024-03-23T10:44:37;9.00;99.90
37938;DHT22;23763;48.130;11.602;2024-03-23T10:47:05;9.10;99.90
37938;DHT22;23763;48.130;11.602;2024-03-23T10:49:35;9.10;99.90
37938;DHT22;23763;48.130;11.602;2024-03-23T10:52:03;9.10;99.90
37938;DHT22;23763;48.130;11.602;2024-03-23T10:54:33;9.20;99.90
37938;DHT22;23763;48.130;11.602;2024-03-23T10:57:27;9.20;99.90
37938;DHT22;23763;48.130;11.602;2024-03-23T10:59:56;8.90;99.90
37938;DHT22;23763;48.130;11.602;2024-03-23T11:02:23;9.00;99.90
37938;DHT22;23763;48.130;11.602;2024-03-23T11:04:48;8.90;99.90
37938;DHT22;23763;48.130;11.602;2024-03-23T11:07:28;9.00;99.90
37938;DHT22;23763;48.130;11.602;2024-03-23T11:09:54;9.10;99.90
37938;DHT22;23763;48.130;11.602;2024-03-23T11:14:50;9.30;99.90
37938;DHT22;23763;48.130;11.602;2024-03-23T11:17:20;9.30;99.90
37938;DHT22;23763;48.130;11.602;2024-03-23T11:19:55;9.50;99.90
37938;DHT22;23763;48.130;11.602;2024-03-23T11:25:12;9.40;99.90
37938;DHT22;23763;48.130;11.602;2024-03-23T11:27:37;9.40;99.90
37938;DHT22;23763;48.130;11.602;2024-03-23T11:30:11;9.50;99.90
37938;DHT22;23763;48.130;11.602;2024-03-23T11:32:37;9.60;99.90
37938;DHT22;23763;48.130;11.602;2024-03-23T11:35:03;9.80;99.90
37938;DHT22;23763;48.130;11.602;2024-03-23T11:37:29;9.90;99.90
37938;DHT22;23763;48.130;11.602;2024-03-23T11:39:54;9.90;99.90
37938;DHT22;23763;48.130;11.602;2024-03-23T11:42:20;9.90;99.90
37938;DHT22;23763;48.130;11.602;2024-03-23T11:44:47;9.80;99.90
37938;DHT22;23763;48.130;11.602;2024-03-23T11:47:13;9.70;99.90
37938;DHT22;23763;48.130;11.602;2024-03-23T11:49:38;9.70;99.90
37938;DHT22;23763;48.130;11.602;2024-03-23T11:52:06;9.80;99.90
37938;DHT22;23763;48.130;11.602;2024-03-23T11:54:33;9.80;99.90
37938;DHT22;23763;48.130;11.602;2024-03-23T11:57:04;9.70;99.90
37938;DHT22;23763;48.130;11.602;2024-03-23T11:59:40;9.80;99.90
37938;DHT22;23763;48.130;11.602;2024-03-23T12:02:18;9.90;99.90
37938;DHT22;23763;48.130;11.602;2024-03-23T12:04:44;10.10;99.90
37938;DHT22;23763;48.130;11.602;2024-03-23T12:09:46;10.30;99.90
37938;DHT22;23763;48.130;11.602;2024-03-23T12:12:17;10.20;99.90
37938;DHT22;23763;48.130;11.602;2024-03-23T12:17:13;10.00;99.90
37938;DHT22;23763;48.130;11.602;2024-03-23T12:19:40;9.80;99.90
37938;DHT22;23763;48.130;11.602;2024-03-23T12:22:07;9.50;99.90
37938;DHT22;23763;48.130;11.602;2024-03-23T12:24:34;9.30;99.90
37938;DHT22;23763;48.130;11.602;2024-03-23T12:27:03;9.20;99.90
37938;DHT22;23763;48.130;11.602;2024-03-23T12:29:31;9.20;99.90
37938;DHT22;23763;48.130;11.602;2024-03-23T12:32:00;9.30;99.90
37938;DHT22;23763;48.130;11.602;2024-03-23T12:34:27;9.30;99.90
37938;DHT22;23763;48.130;11.602;2024-03-23T12:36:53;9.30;99.90
37938;DHT22;23763;48.130;11.602;2024-03-23T12:39:19;9.50;99.90
37938;DHT22;23763;48.130;11.602;2024-03-23T12:41:47;9.70;99.90
37938;DHT22;23763;48.130;11.602;2024-03-23T12:44:13;9.90;99.90
37938;DHT22;23763;48.130;11.602;2024-03-23T12:46:39;10.00;99.90
37938;DHT22;23763;48.130;11.602;2024-03-23T12:49:05;10.00;99.90
37938;DHT22;23763;48.130;11.602;2024-03-23T12:51:32;10.10;99.90
37938;DHT22;23763;48.130;11.602;2024-03-23T12:53:57;10.20;99.90
37938;DHT22;23763;48.130;11.602;2024-03-23T12:56:23;10.20;99.90
37938;DHT22;23763;48.130;11.602;2024-03-23T12:58:49;10.20;99.90
37938;DHT22;23763;48.130;11.602;2024-03-23T13:01:19;10.10;99.90
37938;DHT22;23763;48.130;11.602;2024-03-23T13:03:49;10.10;99.90
37938;DHT22;23763;48.130;11.602;2024-03-23T13:06:15;10.20;99.90
37938;DHT22;23763;48.130;11.602;2024-03-23T13:08:44;10.20;99.90
37938;DHT22;23763;48.130;11.602;2024-03-23T13:11:10;10.30;99.90
37938;DHT22;23763;48.130;11.602;2024-03-23T13:13:37;10.50;99.90
37938;DHT22;23763;48.130;11.602;2024-03-23T13:16:03;10.50;99.90
37938;DHT22;23763;48.130;11.602;2024-03-23T13:18:30;10.60;99.90
37938;DHT22;23763;48.130;11.602;2024-03-23T13:20:55;10.70;99.90
37938;DHT22;23763;48.130;11.602;2024-03-23T13:23:21;10.70;99.90
37938;DHT22;23763;48.130;11.602;2024-03-23T13:25:51;10.50;99.90
37938;DHT22;23763;48.130;11.602;2024-03-23T13:28:19;10.60;99.90
37938;DHT22;23763;48.130;11.602;2024-03-23T13:30:55;10.50;99.90
37938;DHT22;23763;48.130;11.602;2024-03-23T13:33:21;10.50;99.90
37938;DHT22;23763;48.130;11.602;2024-03-23T13:35:53;10.60;99.90
37938;DHT22;23763;48.130;11.602;2024-03-23T13:38:20;10.70;99.90
37938;DHT22;23763;48.130;11.602;2024-03-23T13:43:18;10.60;99.90
37938;DHT22;23763;48.130;11.602;2024-03-23T13:45:45;10.50;99.90
37938;DHT22;23763;48.130;11.602;2024-03-23T13:48:12;10.50;99.90
37938;DHT22;23763;48.130;11.602;2024-03-23T13:50:37;10.50;99.90
37938;DHT22;23763;48.130;11.602;2024-03-23T13:53:03;10.60;99.90
37938;DHT22;23763;48.130;11.602;2024-03-23T13:55:29;10.40;99.90
37938;DHT22;23763;48.130;11.602;2024-03-23T13:57:55;10.20;99.90
37938;DHT22;23763;48.130;11.602;2024-03-23T14:00:20;10.10;99.90
37938;DHT22;23763;48.130;11.602;2024-03-23T14:02:47;9.90;99.90
37938;DHT22;23763;48.130;11.602;2024-03-23T14:05:13;9.40;99.90
37938;DHT22;23763;48.130;11.602;2024-03-23T14:07:38;9.10;99.90
37938;DHT22;23763;48.130;11.602;2024-03-23T14:10:04;8.60;99.90
37938;DHT22;23763;48.130;11.602;2024-03-23T14:12:32;8.30;99.90
37938;DHT22;23763;48.130;11.602;2024-03-23T14:14:57;8.00;99.90
37938;DHT22;23763;48.130;11.602;2024-03-23T14:17:23;7.80;99.90
37938;DHT22;23763;48.130;11.602;2024-03-23T14:19:49;7.70;99.90
37938;DHT22;23763;48.130;11.602;2024-03-23T14:22:15;7.90;99.90
37938;DHT22;23763;48.130;11.602;2024-03-23T14:24:45;8.00;99.90
37938;DHT22;23763;48.130;11.602;2024-03-23T14:27:10;8.10;99.90
37938;DHT22;23763;48.130;11.602;2024-03-23T14:29:36;8.30;99.90
37938;DHT22;23763;48.130;11.602;2024-03-23T14:32:02;8.30;99.90
37938;DHT22;23763;48.130;11.602;2024-03-23T14:34:28;8.50;99.90
37938;DHT22;23763;48.130;11.602;2024-03-23T14:36:54;8.50;99.90
37938;DHT22;23763;48.130;11.602;2024-03-23T14:39:23;8.60;99.90
37938;DHT22;23763;48.130;11.602;2024-03-23T14:41:50;8.60;99.90
37938;DHT22;23763;48.130;11.602;2024-03-23T14:44:16;8.70;99.90
37938;DHT22;23763;48.130;11.602;2024-03-23T14:46:42;8.80;99.90
37938;DHT22;23763;48.130;11.602;2024-03-23T14:49:08;8.70;99.90
37938;DHT22;23763;48.130;11.602;2024-03-23T14:51:35;8.60;99.90
37938;DHT22;23763;48.130;11.602;2024-03-23T14:54:00;8.50;99.90
37938;DHT22;23763;48.130;11.602;2024-03-23T14:56:26;8.40;99.90
37938;DHT22;23763;48.130;11.602;2024-03-23T14:58:52;8.40;99.90
37938;DHT22;23763;48.130;11.602;2024-03-23T15:01:19;8.40;99.90
37938;DHT22;23763;48.130;11.602;2024-03-23T15:03:45;8.30;99.90
37938;DHT22;23763;48.130;11.602;2024-03-23T15:06:12;8.20;99.90
37938;DHT22;23763;48.130;11.602;2024-03-23T15:08:38;7.90;99.90
37938;DHT22;23763;48.130;11.602;2024-03-23T15:11:05;7.80;99.90
37938;DHT22;23763;48.130;11.602;2024-03-23T15:13:35;7.80;99.90
37938;DHT22;23763;48.130;11.602;2024-03-23T15:16:01;7.60;99.90
37938;DHT22;23763;48.130;11.602;2024-03-23T15:18:29;7.60;99.90
37938;DHT22;23763;48.130;11.602;2024-03-23T15:20:59;7.30;99.90
37938;DHT22;23763;48.130;11.602;2024-03-23T15:23:30;7.00;99.90
37938;DHT22;23763;48.130;11.602;2024-03-23T15:26:01;7.00;99.90
37938;DHT22;23763;48.130;11.602;2024-03-23T15:28:27;6.90;99.90
37938;DHT22;23763;48.130;11.602;2024-03-23T15:31:07;7.00;99.90
37938;DHT22;23763;48.130;11.602;2024-03-23T15:33:34;7.10;99.90
37938;DHT22;23763;48.130;11.602;2024-03-23T15:36:01;7.40;99.90
37938;DHT22;23763;48.130;11.602;2024-03-23T15:38:27;7.50;99.90
37938;DHT22;23763;48.130;11.602;2024-03-23T15:40:55;7.50;99.90
37938;DHT22;23763;48.130;11.602;2024-03-23T15:43:20;7.40;99.90
37938;DHT22;23763;48.130;11.602;2024-03-23T15:46:00;7.40;99.90
37938;DHT22;23763;48.130;11.602;2024-03-23T15:48:26;7.60;99.90
37938;DHT22;23763;48.130;11.602;2024-03-23T15:50:57;7.60;99.90
37938;DHT22;23763;48.130;11.602;2024-03-23T15:53:24;7.60;99.90
37938;DHT22;23763;48.130;11.602;2024-03-23T15:56:03;7.70;99.90
37938;DHT22;23763;48.130;11.602;2024-03-23T15:58:30;7.80;99.90
37938;DHT22;23763;48.130;11.602;2024-03-23T16:03:30;8.00;99.90
37938;DHT22;23763;48.130;11.602;2024-03-23T16:06:07;8.10;99.90
37938;DHT22;23763;48.130;11.602;2024-03-23T16:08:33;8.00;99.90
37938;DHT22;23763;48.130;11.602;2024-03-23T16:11:06;7.90;99.90
37938;DHT22;23763;48.130;11.602;2024-03-23T16:13:35;7.80;99.90
37938;DHT22;23763;48.130;11.602;2024-03-23T16:16:02;7.80;99.90
37938;DHT22;23763;48.130;11.602;2024-03-23T16:18:36;7.80;99.90
37938;DHT22;23763;48.130;11.602;2024-03-23T16:21:04;7.70;99.90
37938;DHT22;23763;48.130;11.602;2024-03-23T16:23:32;7.70;99.90
37938;DHT22;23763;48.130;11.602;2024-03-23T16:25:58;7.60;99.90
37938;DHT22;23763;48.130;11.602;2024-03-23T16:28:25;7.60;99.90
37938;DHT22;23763;48.130;11.602;2024-03-23T16:31:09;7.70;99.90
37938;DHT22;23763;48.130;11.602;2024-03-23T16:33:36;7.80;99.90